Tiempo atmosférico en la estación meteorológica de Castell, Platja d'Aro, Girona (14 m.)



Fecha
DESCASC
Temp. máxima en grados centígrados (hora)
DESCASC
Temp. mínima en grados centígrados (hora)
DESCASC
Temp. media en grados centígrados
DESCASC
Racha de viento máxima en m/sg (hora)
DESCASC
Velocidad máxima media en intervalos de 10 minutos(hora)
DESCASC
Precipitaciones diarias en mm
DESCASC
Precipitaciones de 00:00 a 06:00 en mm
DESCASC
Precipitaciones de 06:00 a 12:00 en mm
DESCASC
Precipitaciones de 12:00 a 18:00 en mm
DESCASC
Precipitaciones de 18:00 a 24:00 en mm
DESCASC
26-03-2020 10.6 (13:10) 2.6 (00:00) 6.6 9.44 (16:20) 4.72 (13:10) 5.6 0 5.4 0.2 0
09-04-2020 18.3 (16:00) 6.7 (00:00) 12.5 6.67 (14:40) 3.89 (13:40) 0 0 0 0 0
08-04-2020 17.8 (14:50) 8.1 (00:00) 12.9 5.56 (15:40) 3.33 (16:00) 0 0 0 0 0
07-04-2020 18 (15:10) 7.5 (00:00) 12.8 7.5 (16:50) 3.89 (17:00) 0 0 0 0 0
06-04-2020 17.1 (14:00) 5.5 (00:00) 11.3 6.94 (14:20) 3.89 (17:30) 0 0 0 0 0
05-04-2020 17.8 (13:30) 4.6 (00:00) 11.2 6.39 (16:50) 3.61 (12:30) 0 0 0 0 0
04-04-2020 16.9 (15:10) 4.9 (00:00) 10.9 8.61 (16:40) 4.44 (16:40) 0 0 0 0 0
03-04-2020 18.9 (14:00) 4.2 (06:20) 11.5 12.5 (11:20) 5.83 (11:20) 0 0 0 0 0
31-03-2020 13 (10:50) 8.3 (00:00) 10.7 7.22 (16:00) 3.33 (14:20) 6.6 0 0 0 6.6
30-03-2020 13.7 (00:10) 8.3 (00:00) 11 7.78 (04:10) 3.61 (01:50) 0.8 0 0.2 0.4 0.2
29-03-2020 20 (13:40) 5.4 (00:00) 12.7 6.94 (16:00) 3.89 (14:20) 0 0 0 0 0
28-03-2020 16.9 (12:40) 7.4 (00:00) 12.1 6.11 (13:10) 3.61 (17:30) 0 0 0 0 0
27-03-2020 13.8 (13:40) 2.2 (00:00) 8 7.22 (06:00) 4.72 (06:20) 0.2 0 0 0.2 0
11-03-2020 18.2 (12:30) 6.2 (00:00) 12.2 8.89 (15:20) 5 (15:30) 0 0 0 0 0
25-03-2020 13.1 (10:50) 6 (00:00) 9.6 8.06 (11:10) 4.44 (13:20) 0 0 0 0 0
24-03-2020 14 (11:30) 9.8 (00:00) 11.9 9.17 (12:30) 5 (11:40) 0 0 0 0 0
22-03-2020 16.6 (12:00) 12.4 (07:00) 14.5 7.22 (11:00) 3.89 (11:00) 1.4 0 0 0 1.4
21-03-2020 16.8 (14:30) 4.6 (00:00) 10.7 7.22 (14:50) 3.89 (15:20) 0.2 0 0.2 0 0
16-03-2020 14.1 (10:40) 9.3 (00:00) 11.7 10.56 (22:10) 5 (15:20) 11.2 0 1.4 8.2 1.6
17-03-2020 16.2 (16:50) 9.6 (00:00) 12.9 8.89 (00:10) 4.17 (00:10) 0 0 0 0 0
18-03-2020 17.1 (16:00) 6.7 (00:00) 11.9 4.17 (16:00) 2.5 (16:40) 0 0 0 0 0
19-03-2020 15.5 (14:40) 4.5 (00:00) 10 5.28 (13:10) 3.06 (13:10) 0 0 0 0 0
20-03-2020 17.1 (12:50) 4 (00:00) 10.6 5.28 (13:20) 3.06 (15:10) 0 0 0 0 0
15-03-2020 16.6 (14:50) 9.8 (00:00) 13.2 10.28 (15:00) 5.83 (13:50) 0 0 0 0 0
14-03-2020 15.4 (12:30) 11.8 (00:00) 13.6 6.39 (14:00) 3.89 (13:40) 0 0 0 0 0
13-03-2020 18.9 (13:20) 8.3 (06:50) 13.6 6.67 (13:40) 4.17 (13:40) 0 0 0 0 0
12-03-2020 18.8 (11:40) 7.4 (00:00) 13.1 6.39 (12:30) 3.61 (12:40) 0 0 0 0 0
02-04-2020 14.1 (15:10) 7.7 (00:00) 10.9 10.83 (13:20) 5.28 (13:20) 1 0.8 0.2 0 0
01-04-2020 12.2 (03:40) 9.9 (00:00) 11 10.83 (10:40) 5.28 (10:40) 22 1.2 1 11.2 8.6
23-03-2020 15.6 (11:20) 12 (00:00) 13.8 9.72 (17:30) 4.72 (19:20) 12.8 5 5.4 2.4 0

Gráficas

Temp. máximas Temp. mínimas Temp. medias Precipitaciones Rachas de viento máximas Velocidades máximas media en intervalos de 10 minutos

Datos horarios

Fecha y hora oficial Temperatura (ºC) Velocidad del viento (km/h) Dirección del viento Racha (km/h) Dirección de racha Precipitación (mm) Presión (hPa) Tendencia (hPa) Humedad (%)
2020-04-09 23:00:00 10.9 6 Oeste 10 Oeste 0 -- -- 87
2020-04-09 22:00:00 12.8 3 Oeste 5 Oeste 0 -- -- 88
2020-04-09 21:00:00 14.2 0 Calma 5 Sur 0 -- -- 86
2020-04-09 20:00:00 15.9 2 Sudeste 15 Sur 0 -- -- 80
2020-04-09 19:00:00 16.5 8 Sur 17 Sur 0 -- -- 73
2020-04-09 18:00:00 17.4 7 Sur 18 Sudeste 0 -- -- 70
2020-04-09 17:00:00 17.5 11 Sudeste 20 Sudeste 0 -- -- 70
2020-04-09 16:00:00 18.3 9 Sur 20 Sur 0 -- -- 70
2020-04-09 15:00:00 17.9 12 Sudeste 24 Sudeste 0 -- -- 67
2020-04-09 14:00:00 17.6 12 Sudeste 21 Sudeste 0 -- -- 75
2020-04-09 13:00:00 17.2 9 Sudeste 22 Sudeste 0 -- -- 77
2020-04-09 12:00:00 17.4 9 Sudeste 17 Sudeste 0 -- -- 73
2020-04-09 11:00:00 16.6 7 Sudeste 15 Este 0 -- -- 77
2020-04-09 10:00:00 12.7 2 Noroeste 7 Oeste 0 -- -- 92
2020-04-09 09:00:00 9.4 3 Oeste 9 Oeste 0 -- -- 96
2020-04-09 08:00:00 7.7 4 Oeste 13 Oeste 0 -- -- 96
2020-04-09 07:00:00 7 6 Oeste 12 Oeste 0 -- -- 96
2020-04-09 06:00:00 6.8 6 Oeste 9 Oeste 0 -- -- 95
2020-04-09 05:00:00 7 5 Oeste 12 Oeste 0 -- -- 94
2020-04-09 04:00:00 7.4 6 Oeste 13 Oeste 0 -- -- 94
2020-04-09 03:00:00 7.5 6 Oeste 14 Oeste 0 -- -- 93
2020-04-09 02:00:00 7.6 7 Oeste 12 Oeste 0 -- -- 92
2020-04-09 01:00:00 8.5 6 Oeste 10 Oeste 0 -- -- 90
2020-04-09 00:00:00 9.1 5 Oeste 9 Oeste 0 -- -- 89
2020-04-08 23:00:00 10.1 6 Oeste 10 Oeste 0 -- -- 88
2020-04-08 22:00:00 11.3 4 Oeste 6 Oeste 0 -- -- 88
2020-04-08 21:00:00 12.9 2 Oeste 4 Sudoeste 0 -- -- 87
2020-04-08 20:00:00 15.2 0 Calma 9 Sur 0 -- -- 79
2020-04-08 19:00:00 15.7 8 Sudeste 14 Sudeste 0 -- -- 77
2020-04-08 18:00:00 16 7 Sudeste 15 Sudeste 0 -- -- 77
2020-04-08 17:00:00 16.4 11 Sur 19 Sudeste 0 -- -- 72
2020-04-08 16:00:00 17.2 12 Sudeste 20 Sudeste 0 -- -- 62
2020-04-08 15:00:00 17.6 8 Sudeste 19 Sur 0 -- -- 51
2020-04-08 14:00:00 17 8 Sur 19 Sudeste 0 -- -- 65
2020-04-08 13:00:00 16 10 Sur 19 Este 0 -- -- 74
2020-04-08 12:00:00 15.6 9 Sur 17 Sur 0 -- -- 76
2020-04-08 11:00:00 15 6 Sur 17 Sur 0 -- -- 80
2020-04-08 10:00:00 12.2 3 Este 8 Sudeste 0 -- -- 95
2020-04-08 09:00:00 9.7 3 Oeste 8 Oeste 0 -- -- 94
2020-04-08 08:00:00 8.6 5 Oeste 10 Oeste 0 -- -- 95
2020-04-08 07:00:00 8.1 4 Oeste 8 Oeste 0 -- -- 94
2020-04-08 06:00:00 8.9 0 Calma 8 Oeste 0 -- -- 92
2020-04-08 05:00:00 9.6 5 Oeste 8 Oeste 0 -- -- 92
2020-04-08 04:00:00 10.5 2 Noroeste 5 Oeste 0 -- -- 90
2020-04-08 03:00:00 11.1 3 Oeste 6 Oeste 0 -- -- 89
2020-04-08 02:00:00 11.2 4 Oeste 9 Oeste 0 -- -- 87
2020-04-08 01:00:00 11.8 3 Sudoeste 6 Oeste 0 -- -- 86
2020-04-08 00:00:00 12.9 2 Noroeste 4 Oeste 0 -- -- 87
2020-04-07 23:00:00 13.7 0 Calma 10 Sudoeste 0 -- -- 84
2020-04-07 22:00:00 14.2 4 Sur 16 Sur 0 -- -- 81
2020-04-07 21:00:00 14.5 6 Sudoeste 14 Sudoeste 0 -- -- 78
2020-04-07 20:00:00 14.9 6 Sur 16 Sur 0 -- -- 71
2020-04-07 19:00:00 15.5 9 Sur 18 Sudoeste 0 -- -- 82
2020-04-07 18:00:00 16.3 8 Sur 19 Sudeste 0 -- -- 81
2020-04-07 17:00:00 16.2 14 Sur 27 Sur 0 -- -- 81
2020-04-07 16:00:00 17.3 10 Sur 26 Sur 0 -- -- 63
2020-04-07 15:00:00 17.5 13 Sur 24 Sur 0 -- -- 62
2020-04-07 14:00:00 17.3 10 Sur 21 Sudeste 0 -- -- 67
2020-04-07 13:00:00 17.7 10 Sur 19 Sudeste 0 -- -- 71
2020-04-07 12:00:00 16.8 9 Sur 15 Sur 0 -- -- 76
2020-04-07 11:00:00 15.4 5 Sudeste 12 Sur 0 -- -- 84
2020-04-07 10:00:00 13.3 4 Nordeste 9 Oeste 0 -- -- 90
2020-04-07 09:00:00 8.8 6 Oeste 14 Oeste 0 -- -- 95
2020-04-07 08:00:00 7.5 5 Oeste 11 Oeste 0 -- -- 96
2020-04-07 07:00:00 7.8 5 Oeste 12 Oeste 0 -- -- 96
2020-04-07 06:00:00 8.2 6 Oeste 9 Oeste 0 -- -- 96
2020-04-07 05:00:00 8.2 6 Oeste 9 Oeste 0 -- -- 96
2020-04-07 04:00:00 8.6 6 Oeste 10 Oeste 0 -- -- 96
2020-04-07 03:00:00 8.7 5 Oeste 10 Oeste 0 -- -- 96
2020-04-07 02:00:00 8.9 4 Oeste 6 Oeste 0 -- -- 94
2020-04-07 01:00:00 9.6 4 Oeste 6 Oeste 0 -- -- 95
2020-04-07 00:00:00 10.1 0 Calma 4 Oeste 0 -- -- 93
2020-04-06 23:00:00 10.9 2 Sur 4 Sudoeste 0 -- -- 93
2020-04-06 22:00:00 11.9 0 Calma 8 Sur 0 -- -- 90
2020-04-06 21:00:00 13.2 0 Calma 9 Sur 0 -- -- 87
2020-04-06 20:00:00 14.5 2 Sur 18 Sur 0 -- -- 86
2020-04-06 19:00:00 15.1 8 Sur 23 Sur 0 -- -- 86
2020-04-06 18:00:00 15.8 10 Sudeste 23 Sur 0 -- -- 82
2020-04-06 17:00:00 16.2 10 Sur 23 Sur 0 -- -- 80
2020-04-06 16:00:00 16.7 11 Sur 22 Sur 0 -- -- 74
2020-04-06 15:00:00 17 12 Sur 25 Sudeste 0 -- -- 75
2020-04-06 14:00:00 17.1 10 Sudeste 21 Sudeste 0 -- -- 75
2020-04-06 13:00:00 16.9 8 Sudeste 18 Sudeste 0 -- -- 75
2020-04-06 12:00:00 15.9 8 Sudeste 17 Sudeste 0 -- -- 73
2020-04-06 11:00:00 15.4 8 Este 15 Este 0 -- -- 81
2020-04-06 10:00:00 13.7 4 Este 10 Oeste 0 -- -- 80
2020-04-06 09:00:00 9 5 Oeste 11 Oeste 0 -- -- 91
2020-04-06 08:00:00 6.8 7 Oeste 12 Oeste 0 -- -- 97
2020-04-06 07:00:00 6.7 5 Oeste 12 Oeste 0 -- -- 97
2020-04-06 06:00:00 6.2 5 Oeste 10 Oeste 0 -- -- 97
2020-04-06 05:00:00 5.8 6 Oeste 11 Oeste 0 -- -- 96
2020-04-06 04:00:00 6 6 Oeste 13 Oeste 0 -- -- 96
2020-04-06 03:00:00 5.6 8 Oeste 13 Oeste 0 -- -- 95
2020-04-06 02:00:00 5.9 6 Oeste 11 Oeste 0 -- -- 94
2020-04-06 01:00:00 6.1 6 Oeste 10 Oeste 0 -- -- 90
2020-04-06 00:00:00 6.7 5 Oeste 9 Oeste 0 -- -- 87
2020-04-05 23:00:00 8 4 Oeste 8 Oeste 0 -- -- 85
2020-04-05 22:00:00 10 0 Calma 10 Sudoeste 0 -- -- 86
2020-04-05 21:00:00 11.9 2 Oeste 13 Sudoeste 0 -- -- 84
2020-04-05 20:00:00 14 5 Sur 18 Sudeste 0 -- -- 79
2020-04-05 19:00:00 14.9 8 Sur 20 Sur 0 -- -- 73
2020-04-05 18:00:00 15.6 11 Sur 21 Sur 0 -- -- 69
2020-04-05 17:00:00 17.2 11 Sur 23 Sudoeste 0 -- -- 59
2020-04-05 16:00:00 17.4 12 Sur 23 Sur 0 -- -- 63
2020-04-05 15:00:00 17.8 10 Sur 22 Sudeste 0 -- -- 57
2020-04-05 14:00:00 17.6 11 Sur 20 Sur 0 -- -- 55
2020-04-05 13:00:00 17.4 10 Sur 19 Sur 0 -- -- 56
2020-04-05 12:00:00 17.4 11 Sur 18 Sur 0 -- -- 55
2020-04-05 11:00:00 16.9 5 Sur 14 Sur 0 -- -- 57
2020-04-05 10:00:00 11.7 3 Noroeste 13 Oeste 0 -- -- 78
2020-04-05 09:00:00 7.5 8 Oeste 12 Oeste 0 -- -- 88
2020-04-05 08:00:00 4.9 7 Oeste 13 Sudoeste 0 -- -- 95
2020-04-05 07:00:00 4.9 8 Oeste 14 Oeste 0 -- -- 94
2020-04-05 06:00:00 5.4 7 Oeste 13 Oeste 0 -- -- 95
2020-04-05 05:00:00 5.9 6 Oeste 12 Oeste 0 -- -- 96
2020-04-05 04:00:00 5.4 5 Oeste 13 Oeste 0 -- -- 91
2020-04-05 03:00:00 6.1 8 Oeste 12 Oeste 0 -- -- 93
2020-04-05 02:00:00 6.1 5 Oeste 9 Oeste 0 -- -- 91
2020-04-05 01:00:00 6.8 6 Oeste 8 Oeste 0 -- -- 90
2020-04-05 00:00:00 7.3 3 Oeste 8 Oeste 0 -- -- 87
2020-04-04 23:00:00 8.5 4 Oeste 8 Oeste 0 -- -- 83
2020-04-04 22:00:00 10.4 2 Sudoeste 6 Sur 0 -- -- 81
2020-04-04 21:00:00 13 0 Calma 13 Sur 0 -- -- 74
2020-04-04 20:00:00 14.2 4 Sudoeste 21 Sudoeste 0 -- -- 75
2020-04-04 19:00:00 14.8 10 Sur 25 Sur 0 -- -- 82
2020-04-04 18:00:00 15.7 10 Sur 24 Sur 0 -- -- 72
2020-04-04 17:00:00 16.1 13 Sur 31 Sur 0 -- -- 69
2020-04-04 16:00:00 16 10 Sur 22 Sudeste 0 -- -- 72
2020-04-04 15:00:00 16.7 9 Sur 18 Nordeste 0 -- -- 66
2020-04-04 14:00:00 16 9 Sudeste 18 Sudeste 0 -- -- 72
2020-04-04 13:00:00 16.2 10 Sudeste 18 Este 0 -- -- 62
2020-04-04 12:00:00 16.2 6 Este 14 Sudeste 0 -- -- 61
2020-04-04 11:00:00 15.3 7 Este 14 Este 0 -- -- 64
2020-04-04 10:00:00 11.5 5 Oeste 13 Oeste 0 -- -- 83
2020-04-04 09:00:00 7.9 5 Oeste 14 Oeste 0 -- -- 92
2020-04-04 08:00:00 5 8 Oeste 15 Oeste 0 -- -- 95
2020-04-04 07:00:00 5.3 8 Oeste 15 Oeste 0 -- -- 95
2020-04-04 06:00:00 5.6 8 Oeste 14 Oeste 0 -- -- 96
2020-04-04 05:00:00 5.8 6 Oeste 17 Oeste 0 -- -- 94
2020-04-04 04:00:00 6.1 9 Oeste 14 Oeste 0 -- -- 95
2020-04-04 03:00:00 6.3 7 Oeste 12 Sudoeste 0 -- -- 93
2020-04-04 02:00:00 7 6 Oeste 13 Oeste 0 -- -- 93
2020-04-04 01:00:00 7.7 6 Oeste 13 Oeste 0 -- -- 91
2020-04-04 00:00:00 9.2 6 Oeste 11 Oeste 0 -- -- 88
2020-04-03 23:00:00 9.5 4 Sudoeste 12 Oeste 0 -- -- 88
2020-04-03 22:00:00 10.2 3 Oeste 9 Oeste 0 -- -- 84
2020-04-03 21:00:00 12.2 4 Oeste 11 Sudoeste 0 -- -- 76
2020-04-03 20:00:00 13.7 5 Sudoeste 17 Sudoeste 0 -- -- 70
2020-04-03 19:00:00 14.5 5 Sur 18 Sur 0 -- -- 69
2020-04-03 18:00:00 14.8 9 Sur 21 Sur 0 -- -- 64
2020-04-03 17:00:00 15.9 8 Sur 21 Sur 0 -- -- 55
2020-04-03 16:00:00 16.8 8 Sudeste 22 Sudeste 0 -- -- 54
2020-04-03 15:00:00 17.4 8 Sudeste 26 Sur 0 -- -- 53
2020-04-03 14:00:00 18.9 9 Sudoeste 25 Noroeste 0 -- -- 48
2020-04-03 13:00:00 17.4 9 Norte 28 Nordeste 0 -- -- 49
2020-04-03 12:00:00 16.7 12 Norte 45 Nordeste 0 -- -- 45
2020-04-03 11:00:00 15.5 13 Norte 33 Noroeste 0 -- -- 50
2020-04-03 10:00:00 13.9 13 Norte 33 Noroeste 0 -- -- 53
2020-04-03 09:00:00 12.3 12 Noroeste 27 Noroeste 0 -- -- 60
2020-04-03 08:00:00 9.8 13 Noroeste 24 Noroeste 0 -- -- 70
2020-04-03 07:00:00 5.2 12 Oeste 24 Oeste 0 -- -- 97
2020-04-03 06:00:00 4.3 9 Oeste 14 Oeste 0 -- -- 96
2020-04-03 05:00:00 4.4 10 Oeste 16 Oeste 0 -- -- 96
2020-04-03 04:00:00 5 8 Sudoeste 14 Oeste 0 -- -- 95
2020-04-03 03:00:00 5.3 7 Oeste 14 Oeste 0 -- -- 94
2020-04-03 02:00:00 6 6 Oeste 13 Oeste 0 -- -- 92
2020-04-03 01:00:00 6.9 6 Oeste 13 Oeste 0 -- -- 90
2020-04-03 00:00:00 7.7 5 Oeste 10 Oeste 0 -- -- 88
2020-04-02 23:00:00 9.1 3 Sudoeste 12 Noroeste 0 -- -- 83
2020-04-02 22:00:00 10.9 4 Noroeste 14 Norte 0 -- -- 76
2020-04-02 21:00:00 11.4 7 Nordeste 15 Nordeste 0 -- -- 70
2020-04-02 20:00:00 12 9 Nordeste 27 Nordeste 0 -- -- 65
2020-04-02 19:00:00 12.5 13 Nordeste 37 Nordeste 0 -- -- 63
2020-04-02 18:00:00 13.1 16 Nordeste 33 Nordeste 0 -- -- 65
2020-04-02 17:00:00 13.7 11 Norte 29 Nordeste 0 -- -- 64
2020-04-02 16:00:00 13.6 13 Nordeste 28 Norte 0 -- -- 65
2020-04-02 15:00:00 13.9 16 Nordeste 37 Nordeste 0 -- -- 63
2020-04-02 14:00:00 13.6 16 Nordeste 39 Nordeste 0 -- -- 64
2020-04-02 13:00:00 13.2 14 Nordeste 37 Nordeste 0 -- -- 67
2020-04-02 12:00:00 12.1 16 Nordeste 32 Nordeste 0 -- -- 68
2020-04-02 11:00:00 11.8 14 Norte 30 Este 0 -- -- 73
2020-04-02 10:00:00 11 13 Norte 31 Norte 0 -- -- 82
2020-04-02 09:00:00 9.9 7 Norte 26 Nordeste 0 -- -- 89
2020-04-02 08:00:00 9.2 14 Nordeste 30 Nordeste 0.2 -- -- 90
2020-04-02 07:00:00 9.2 14 Nordeste 30 Norte 0 -- -- 95
2020-04-02 06:00:00 9.3 9 Nordeste 26 Nordeste 0.2 -- -- 95
2020-04-02 05:00:00 9.2 13 Nordeste 27 Nordeste 0 -- -- 94
2020-04-02 04:00:00 9.5 4 Norte 18 Nordeste 0.2 -- -- 94
2020-04-02 03:00:00 9.7 7 Norte 16 Nordeste 0.2 -- -- 94
2020-04-02 02:00:00 9.8 5 Norte 15 Norte 0 -- -- 95
2020-04-02 01:00:00 10 7 Nordeste 19 Este 0.2 -- -- 95
2020-04-02 00:00:00 10.2 10 Nordeste 24 Este 0.4 -- -- 94
2020-04-01 23:00:00 10 10 Nordeste 24 Nordeste 2.2 -- -- 96
2020-04-01 22:00:00 10 8 Nordeste 19 Nordeste 0.6 -- -- 95
2020-04-01 21:00:00 10 9 Nordeste 23 Este 3.2 -- -- 96
2020-04-01 20:00:00 10.1 14 Este 27 Este 1.2 -- -- 93
2020-04-01 19:00:00 10.2 8 Nordeste 23 Norte 1 -- -- 95
2020-04-01 18:00:00 10.3 9 Nordeste 23 Este 1.8 -- -- 95
2020-04-01 17:00:00 10.2 9 Nordeste 24 Nordeste 3 -- -- 95
2020-04-01 16:00:00 10.3 9 Nordeste 32 Este 2.6 -- -- 93
2020-04-01 15:00:00 10.6 12 Nordeste 31 Este 1.6 -- -- 91
2020-04-01 14:00:00 11.1 15 Este 32 Este 0.2 -- -- 85
2020-04-01 13:00:00 11 15 Este 32 Este 2 -- -- 91
2020-04-01 12:00:00 11.4 15 Nordeste 30 Nordeste 0.2 -- -- 84
2020-04-01 11:00:00 11.2 15 Nordeste 39 Este 0 -- -- 85
2020-04-01 10:00:00 11.2 16 Este 33 Este 0.2 -- -- 88
2020-04-01 09:00:00 11.8 13 Este 33 Nordeste 0.2 -- -- 81
2020-04-01 08:00:00 11.5 13 Nordeste 30 Este 0.2 -- -- 83
2020-04-01 07:00:00 11.4 11 Nordeste 34 Este 0.2 -- -- 84
2020-04-01 06:00:00 12 14 Este 30 Este 0 -- -- 82
2020-04-01 05:00:00 12 17 Este 33 Este 0 -- -- 86
2020-04-01 04:00:00 12.2 14 Este 28 Este 0 -- -- 89
2020-04-01 03:00:00 12 13 Este 26 Este 0 -- -- 92
2020-04-01 02:00:00 11.4 5 Nordeste 16 Nordeste 0.2 -- -- 97
2020-04-01 01:00:00 10.2 4 Sudoeste 15 Sudoeste 1 -- -- 97
2020-04-01 00:00:00 10 8 Oeste 16 Oeste 4.2 -- -- 96
2020-03-31 23:00:00 10.1 8 Noroeste 14 Sudoeste 1.8 -- -- 94
2020-03-31 22:00:00 10.4 4 Oeste 12 Oeste 0.6 -- -- 91
2020-03-31 21:00:00 11.1 9 Oeste 14 Oeste 0 -- -- 86
2020-03-31 20:00:00 12 6 Norte 21 Nordeste 0 -- -- 80
2020-03-31 19:00:00 11.9 8 Norte 23 Nordeste 0 -- -- 76
2020-03-31 18:00:00 12.1 9 Nordeste 19 Nordeste 0 -- -- 73
2020-03-31 17:00:00 11.7 3 Nordeste 24 Nordeste 0 -- -- 71
2020-03-31 16:00:00 11.4 11 Nordeste 26 Norte 0 -- -- 73
2020-03-31 15:00:00 11.9 9 Nordeste 23 Nordeste 0 -- -- 71
2020-03-31 14:00:00 12.4 9 Nordeste 21 Nordeste 0 -- -- 69
2020-03-31 13:00:00 11.8 8 Nordeste 20 Este 0 -- -- 71
2020-03-31 12:00:00 12.5 8 Nordeste 17 Nordeste 0 -- -- 66
2020-03-31 11:00:00 13 9 Nordeste 23 Nordeste 0 -- -- 64
2020-03-31 10:00:00 11.9 5 Nordeste 17 Noroeste 0 -- -- 65
2020-03-31 09:00:00 10.4 9 Norte 24 Norte 0 -- -- 68
2020-03-31 08:00:00 9.3 5 Nordeste 14 Noroeste 0 -- -- 70
2020-03-31 07:00:00 9.3 4 Nordeste 17 Nordeste 0 -- -- 71
2020-03-31 06:00:00 9.4 5 Nordeste 25 Nordeste 0 -- -- 70
2020-03-31 05:00:00 9.3 9 Nordeste 22 Nordeste 0 -- -- 67
2020-03-31 04:00:00 9 5 Norte 17 Nordeste 0 -- -- 68
2020-03-31 03:00:00 8.4 5 Oeste 10 Oeste 0 -- -- 81
2020-03-31 02:00:00 8.4 6 Oeste 12 Noroeste 0 -- -- 82
2020-03-31 01:00:00 8.4 5 Noroeste 12 Oeste 0 -- -- 88
2020-03-31 00:00:00 8.3 5 Oeste 8 Oeste 0 -- -- 89
2020-03-30 23:00:00 8.4 0 Calma 6 Sur 0 -- -- 86
2020-03-30 22:00:00 8.7 3 Sudoeste 8 Oeste 0 -- -- 86
2020-03-30 21:00:00 9.5 3 Oeste 7 Oeste 0.2 -- -- 81
2020-03-30 20:00:00 10.4 3 Sudoeste 10 Oeste 0 -- -- 70
2020-03-30 19:00:00 11.1 3 Oeste 10 Noroeste 0 -- -- 67
2020-03-30 18:00:00 11 5 Norte 14 Noroeste 0 -- -- 63
2020-03-30 17:00:00 10.8 8 Noroeste 15 Norte 0 -- -- 66
2020-03-30 16:00:00 10.9 8 Noroeste 16 Oeste 0 -- -- 66
2020-03-30 15:00:00 9.9 4 Nordeste 14 Noroeste 0 -- -- 66
2020-03-30 14:00:00 9.5 3 Norte 12 Nordeste 0.4 -- -- 76
2020-03-30 13:00:00 9.7 9 Norte 17 Norte 0 -- -- 73
2020-03-30 12:00:00 10.3 3 Oeste 8 Norte 0 -- -- 81
2020-03-30 11:00:00 9.6 3 Nordeste 13 Nordeste 0.2 -- -- 79
2020-03-30 10:00:00 9.9 6 Nordeste 18 Nordeste 0 -- -- 74
2020-03-30 09:00:00 10.3 2 Oeste 13 Noroeste 0 -- -- 83
2020-03-30 08:00:00 10 4 Norte 8 Noroeste 0 -- -- 80
2020-03-30 07:00:00 10 4 Este 8 Este 0 -- -- 81
2020-03-30 06:00:00 10.3 3 Este 19 Nordeste 0 -- -- 79
2020-03-30 05:00:00 10.7 6 Nordeste 28 Nordeste 0 -- -- 77
2020-03-30 04:00:00 11 12 Nordeste 27 Este 0 -- -- 76
2020-03-30 03:00:00 11.5 11 Este 26 Este 0 -- -- 75
2020-03-30 02:00:00 12.4 10 Este 24 Nordeste 0 -- -- 74
2020-03-30 01:00:00 13.5 9 Este 18 Este 0 -- -- 73
2020-03-30 00:00:00 13.6 9 Este 18 Este 0 -- -- 85
2020-03-29 23:00:00 13.5 7 Nordeste 14 Nordeste 0 -- -- 79
2020-03-29 22:00:00 13.1 5 Nordeste 10 Oeste 0 -- -- 75
2020-03-29 21:00:00 13.6 4 Noroeste 8 Noroeste 0 -- -- 72
2020-03-29 20:00:00 14.7 3 Nordeste 10 Sur 0 -- -- 67
2020-03-29 19:00:00 16.3 5 Sur 14 Sudeste 0 -- -- 59
2020-03-29 18:00:00 16.2 8 Sur 21 Sur 0 -- -- 56
2020-03-29 17:00:00 18.1 12 Sur 24 Sur 0 -- -- 49
2020-03-29 16:00:00 18.7 14 Sur 25 Sur 0 -- -- 46
2020-03-29 15:00:00 19 12 Sur 22 Sur 0 -- -- 43
2020-03-29 14:00:00 19.4 12 Sur 21 Sudeste 0 -- -- 42
2020-03-29 13:00:00 18.8 4 Sudeste 10 Sudeste 0 -- -- 51
2020-03-29 12:00:00 16.2 4 Sudoeste 12 Oeste 0 -- -- 67
2020-03-29 11:00:00 12.5 8 Oeste 17 Oeste 0 -- -- 78
2020-03-29 10:00:00 9.8 12 Oeste 23 Oeste 0 -- -- 85
2020-03-29 09:00:00 7.4 9 Oeste 15 Oeste 0 -- -- 95
2020-03-29 08:00:00 5.6 8 Oeste 14 Sudoeste 0 -- -- 95
2020-03-29 07:00:00 5.9 8 Oeste 15 Oeste 0 -- -- 94
2020-03-29 06:00:00 5.9 8 Oeste 15 Oeste 0 -- -- 94
2020-03-29 05:00:00 6.1 8 Oeste 16 Oeste 0 -- -- 92
2020-03-29 03:00:00 7.2 8 Oeste 16 Oeste 0 -- -- 90
2020-03-29 01:00:00 7.5 8 Oeste 15 Sudoeste 0 -- -- 88
2020-03-29 00:00:00 8.7 9 Oeste 15 Oeste 0 -- -- 85
2020-03-28 23:00:00 9.4 7 Oeste 15 Oeste 0 -- -- 83
2020-03-28 22:00:00 10 8 Oeste 15 Oeste 0 -- -- 81
2020-03-28 21:00:00 11.4 6 Oeste 11 Oeste 0 -- -- 76
2020-03-28 20:00:00 12.9 4 Oeste 9 Oeste 0 -- -- 72
2020-03-28 19:00:00 14.3 3 Sudoeste 19 Sur 0 -- -- 65
2020-03-28 18:00:00 14.9 9 Sur 19 Sur 0 -- -- 67
2020-03-28 17:00:00 15.6 11 Sur 19 Sur 0 -- -- 68
2020-03-28 16:00:00 16.3 9 Sur 18 Sudeste 0 -- -- 64
2020-03-28 15:00:00 16.5 7 Sudeste 17 Nordeste 0 -- -- 55
2020-03-28 14:00:00 16.4 10 Este 22 Este 0 -- -- 53
2020-03-28 13:00:00 16.5 10 Este 20 Este 0 -- -- 54
2020-03-28 12:00:00 16.4 11 Este 19 Este 0 -- -- 58
2020-03-28 11:00:00 16 8 Este 18 Este 0 -- -- 56
2020-03-28 10:00:00 14.2 8 Nordeste 16 Nordeste 0 -- -- 58
2020-03-28 09:00:00 10.6 7 Oeste 14 Oeste 0 -- -- 84
2020-03-28 08:00:00 8.3 6 Oeste 12 Oeste 0 -- -- 92
2020-03-28 07:00:00 7.8 5 Oeste 17 Sudoeste 0 -- -- 87
2020-03-28 06:00:00 7.7 4 Oeste 14 Oeste 0 -- -- 86
2020-03-28 05:00:00 7.4 6 Oeste 12 Oeste 0 -- -- 91
2020-03-28 04:00:00 8.2 5 Oeste 14 Sudoeste 0 -- -- 88
2020-03-28 03:00:00 8.7 6 Sudoeste 15 Oeste 0 -- -- 86
2020-03-28 02:00:00 8.6 8 Oeste 14 Oeste 0 -- -- 89
2020-03-28 01:00:00 8.6 9 Oeste 17 Oeste 0 -- -- 89
2020-03-28 00:00:00 8.5 9 Oeste 16 Oeste 0 -- -- 88
2020-03-27 23:00:00 8.5 5 Oeste 13 Oeste 0 -- -- 90
2020-03-27 22:00:00 9 5 Oeste 10 Oeste 0 -- -- 90
2020-03-27 21:00:00 9.3 5 Oeste 9 Oeste 0 -- -- 90
2020-03-27 20:00:00 9.9 3 Oeste 9 Oeste 0 -- -- 87
2020-03-27 19:00:00 10.7 3 Oeste 8 Noroeste 0 -- -- 83
2020-03-27 18:00:00 11.6 4 Oeste 7 Oeste 0 -- -- 77
2020-03-27 17:00:00 11.4 3 Oeste 21 Noroeste 0.2 -- -- 73
2020-03-27 16:00:00 12.6 7 Norte 23 Norte 0 -- -- 59
2020-03-27 15:00:00 13.3 3 Noroeste 10 Este 0 -- -- 56
2020-03-27 14:00:00 13.5 6 Este 16 Este 0 -- -- 51
2020-03-27 13:00:00 13.3 6 Oeste 21 Noroeste 0 -- -- 55
2020-03-27 12:00:00 11.2 10 Oeste 22 Oeste 0 -- -- 66
2020-03-27 11:00:00 8.4 11 Oeste 21 Oeste 0 -- -- 75
2020-03-27 10:00:00 7.2 9 Oeste 22 Norte 0 -- -- 80
2020-03-27 09:00:00 5.8 13 Oeste 22 Oeste 0 -- -- 80
2020-03-27 08:00:00 5.3 13 Oeste 23 Oeste 0 -- -- 77
2020-03-27 07:00:00 3.5 15 Oeste 26 Oeste 0 -- -- 86
2020-03-27 06:00:00 3.1 12 Oeste 26 Oeste 0 -- -- 92
2020-03-27 05:00:00 2.2 9 Oeste 21 Oeste 0 -- -- 93
2020-03-27 04:00:00 2.9 11 Oeste 24 Oeste 0 -- -- 91
2020-03-27 03:00:00 3.1 15 Oeste 23 Oeste 0 -- -- 91
2020-03-27 02:00:00 3 13 Oeste 25 Oeste 0 -- -- 93
2020-03-27 01:00:00 2.8 9 Oeste 22 Oeste 0 -- -- 95
2020-03-27 00:00:00 2.7 7 Oeste 13 Oeste 0 -- -- 96
2020-03-26 23:00:00 3.2 5 Oeste 12 Oeste 0 -- -- 94
2020-03-26 22:00:00 4.1 4 Oeste 10 Oeste 0 -- -- 92
2020-03-26 21:00:00 5.4 6 Oeste 14 Oeste 0 -- -- 88
2020-03-26 20:00:00 7.7 6 Noroeste 16 Norte 0 -- -- 81
2020-03-26 19:00:00 8.2 7 Norte 23 Norte 0 -- -- 79
2020-03-26 18:00:00 8.7 8 Norte 30 Norte 0 -- -- 77
2020-03-26 17:00:00 7.9 13 Norte 34 Norte 0.2 -- -- 84
2020-03-26 16:00:00 7.7 13 Norte 29 Norte 0 -- -- 86
2020-03-26 15:00:00 8.4 13 Norte 24 Norte 0 -- -- 80
2020-03-26 14:00:00 7.8 7 Norte 31 Nordeste 0 -- -- 83
2020-03-26 13:00:00 10.5 11 Este 26 Este 0 -- -- 74
2020-03-26 12:00:00 9.1 13 Este 27 Este 0 -- -- 78
2020-03-26 11:00:00 8.3 10 Este 24 Sudeste 0.2 -- -- 86
2020-03-26 10:00:00 7.6 11 Este 28 Este 1.8 -- -- 90
2020-03-26 09:00:00 7 6 Nordeste 18 Nordeste 3.4 -- -- 95
2020-03-26 08:00:00 5 3 Oeste 17 Oeste 0 -- -- 92
2020-03-26 07:00:00 4.1 5 Oeste 17 Oeste 0 -- -- 89
2020-03-26 06:00:00 4.2 8 Oeste 19 Oeste 0 -- -- 88
2020-03-26 05:00:00 4.4 6 Oeste 15 Oeste 0 -- -- 87
2020-03-26 04:00:00 4.5 4 Sudoeste 9 Noroeste 0 -- -- 85
2020-03-26 03:00:00 5 3 Oeste 12 Oeste 0 -- -- 81
2020-03-26 02:00:00 6.6 3 Sudoeste 13 Sudoeste 0 -- -- 75
2020-03-26 01:00:00 7.6 5 Sudoeste 13 Sudoeste 0 -- -- 64
2020-03-26 00:00:00 6.3 4 Oeste 9 Oeste 0 -- -- 82
2020-03-25 23:00:00 6 4 Sudoeste 7 Oeste 0 -- -- 85
2020-03-25 22:00:00 7 3 Sudoeste 6 Oeste 0 -- -- 80
2020-03-25 21:00:00 7.7 3 Sudoeste 7 Oeste 0 -- -- 76
2020-03-25 20:00:00 9.8 3 Oeste 12 Sudoeste 0 -- -- 67
2020-03-25 19:00:00 10.6 5 Sudoeste 12 Sudoeste 0 -- -- 59
2020-03-25 18:00:00 10.9 6 Sur 19 Sudeste 0 -- -- 54
2020-03-25 17:00:00 11.5 7 Sur 19 Sudeste 0 -- -- 52
2020-03-25 16:00:00 12.2 10 Sudeste 22 Sudeste 0 -- -- 54
2020-03-25 15:00:00 11.7 8 Sudeste 21 Sudeste 0 -- -- 53
2020-03-25 14:00:00 12.5 12 Sudeste 29 Nordeste 0 -- -- 49
2020-03-25 13:00:00 12.1 13 Este 23 Este 0 -- -- 59
2020-03-25 12:00:00 12.4 14 Este 29 Este 0 -- -- 57
2020-03-25 11:00:00 12.6 9 Este 23 Nordeste 0 -- -- 44
2020-03-25 10:00:00 12.1 6 Este 16 Este 0 -- -- 46
2020-03-25 09:00:00 8.9 6 Oeste 17 Oeste 0 -- -- 68
2020-03-25 08:00:00 6.6 10 Oeste 18 Oeste 0 -- -- 78
2020-03-25 07:00:00 6.1 5 Oeste 13 Oeste 0 -- -- 79
2020-03-25 06:00:00 6.8 5 Oeste 12 Oeste 0 -- -- 75
2020-03-25 05:00:00 7.8 4 Oeste 12 Norte 0 -- -- 71
2020-03-25 04:00:00 8.8 4 Sudoeste 13 Nordeste 0 -- -- 65
2020-03-25 03:00:00 9.4 5 Norte 14 Norte 0 -- -- 53
2020-03-25 02:00:00 9.8 4 Norte 23 Este 0 -- -- 56
2020-03-25 01:00:00 9.6 6 Nordeste 21 Nordeste 0 -- -- 60
2020-03-25 00:00:00 9.8 8 Nordeste 22 Nordeste 0 -- -- 60
2020-03-24 23:00:00 10.3 9 Este 24 Este 0 -- -- 57
2020-03-24 22:00:00 10.3 10 Este 24 Este 0 -- -- 56
2020-03-24 21:00:00 10.4 13 Este 24 Nordeste 0 -- -- 57
2020-03-24 20:00:00 10.4 11 Este 29 Este 0 -- -- 59
2020-03-24 19:00:00 10.8 13 Este 27 Este 0 -- -- 60
2020-03-24 18:00:00 11 17 Este 32 Este 0 -- -- 62
2020-03-24 17:00:00 11.4 15 Este 29 Este 0 -- -- 63
2020-03-24 16:00:00 12 17 Este 33 Nordeste 0 -- -- 64
2020-03-24 15:00:00 12.6 15 Este 33 Este 0 -- -- 64
2020-03-24 14:00:00 12.8 18 Este 31 Este 0 -- -- 68
2020-03-24 13:00:00 13 16 Este 33 Este 0 -- -- 67
2020-03-24 12:00:00 13.6 18 Este 33 Nordeste 0 -- -- 64
2020-03-24 11:00:00 13.6 15 Este 32 Nordeste 0 -- -- 59
2020-03-24 10:00:00 12.6 10 Este 25 Este 0 -- -- 67
2020-03-24 09:00:00 11.6 6 Nordeste 16 Nordeste 0 -- -- 69
2020-03-24 08:00:00 11 7 Nordeste 17 Nordeste 0 -- -- 70
2020-03-24 07:00:00 10.8 7 Nordeste 15 Nordeste 0 -- -- 73
2020-03-24 06:00:00 11 5 Nordeste 22 Nordeste 0 -- -- 76
2020-03-24 05:00:00 11.1 7 Nordeste 18 Nordeste 0 -- -- 79
2020-03-24 04:00:00 11.2 8 Nordeste 15 Nordeste 0 -- -- 79
2020-03-24 03:00:00 11.4 6 Nordeste 13 Nordeste 0 -- -- 80
2020-03-24 02:00:00 11.6 4 Nordeste 15 Nordeste 0 -- -- 84
2020-03-24 01:00:00 11.8 6 Nordeste 15 Nordeste 0 -- -- 83
2020-03-24 00:00:00 12 5 Nordeste 15 Nordeste 0 -- -- 82
2020-03-23 23:00:00 12.4 6 Este 18 Este 0 -- -- 80
2020-03-23 22:00:00 12.4 9 Este 26 Este 0 -- -- 79
2020-03-23 21:00:00 12.6 13 Este 26 Este 0 -- -- 78
2020-03-23 20:00:00 12.7 12 Nordeste 29 Nordeste 0 -- -- 78
2020-03-23 19:00:00 12.9 14 Nordeste 33 Este 0 -- -- 81
2020-03-23 18:00:00 12.8 14 Nordeste 35 Nordeste 1.2 -- -- 86
2020-03-23 17:00:00 13.9 14 Nordeste 33 Nordeste 0 -- -- 80
2020-03-23 16:00:00 14.8 14 Este 33 Nordeste 0 -- -- 80
2020-03-23 15:00:00 15.3 14 Este 28 Este 0 -- -- 74
2020-03-23 14:00:00 15.2 13 Nordeste 27 Nordeste 0 -- -- 81
2020-03-23 13:00:00 14.1 8 Nordeste 26 Este 1.2 -- -- 90
2020-03-23 12:00:00 15.4 13 Este 24 Nordeste 0 -- -- 84
2020-03-23 11:00:00 15.4 8 Nordeste 16 Nordeste 0 -- -- 83
2020-03-23 10:00:00 13.1 4 Norte 13 Noroeste 0.6 -- -- 93
2020-03-23 09:00:00 12.7 4 Oeste 9 Oeste 0.2 -- -- 98
2020-03-23 08:00:00 12.4 5 Oeste 9 Oeste 0.2 -- -- 98
2020-03-23 07:00:00 12.3 3 Oeste 12 Oeste 4.4 -- -- 98
2020-03-23 06:00:00 12.4 5 Oeste 9 Sudoeste 0.2 -- -- 97
2020-03-23 05:00:00 12.5 4 Oeste 10 Sudoeste 0 -- -- 97
2020-03-23 04:00:00 12.9 2 Oeste 10 Este 0 -- -- 97
2020-03-23 03:00:00 12.7 0 Calma 6 Sudoeste 0 -- -- 97
2020-03-23 02:00:00 12.6 4 Oeste 12 Oeste 4.8 -- -- 97
2020-03-23 01:00:00 13 5 Oeste 10 Oeste 0 -- -- 96
2020-03-23 00:00:00 13.1 2 Sudeste 9 Este 0.2 -- -- 94
2020-03-22 23:00:00 13.5 7 Este 11 Nordeste 1.2 -- -- 95
2020-03-22 22:00:00 13.6 4 Este 9 Este 0 -- -- 91
2020-03-22 21:00:00 13.6 3 Este 8 Nordeste 0 -- -- 90
2020-03-22 20:00:00 13.4 2 Este 9 Este 0 -- -- 90
2020-03-22 19:00:00 14 5 Este 14 Este 0 -- -- 88
2020-03-22 18:00:00 14.2 9 Este 18 Este 0 -- -- 86
2020-03-22 17:00:00 14.5 12 Este 23 Este 0 -- -- 84
2020-03-22 16:00:00 15.4 14 Este 24 Este 0 -- -- 80
2020-03-22 15:00:00 16.1 11 Este 21 Este 0 -- -- 77
2020-03-22 14:00:00 16.3 11 Este 25 Este 0 -- -- 76
2020-03-22 13:00:00 16.3 14 Este 25 Este 0 -- -- 79
2020-03-22 12:00:00 16.6 9 Este 26 Este 0 -- -- 75
2020-03-22 11:00:00 15.9 14 Este 26 Este 0 -- -- 81
2020-03-22 10:00:00 15.5 9 Este 21 Este 0 -- -- 81
2020-03-22 09:00:00 13.5 5 Este 10 Nordeste 0 -- -- 92
2020-03-22 08:00:00 12.5 3 Oeste 9 Sudoeste 0 -- -- 95
2020-03-22 07:00:00 12.4 4 Oeste 7 Oeste 0 -- -- 94
2020-03-22 06:00:00 12.6 3 Oeste 6 Oeste 0 -- -- 94
2020-03-22 05:00:00 12.6 0 Calma 6 Oeste 0 -- -- 94
2020-03-22 04:00:00 12.8 3 Oeste 6 Oeste 0 -- -- 94
2020-03-22 03:00:00 12.9 3 Oeste 5 Oeste 0 -- -- 94
2020-03-22 02:00:00 13.1 0 Calma 4 Sudeste 0 -- -- 95
2020-03-22 01:00:00 13.1 0 Calma 4 Sudeste 0 -- -- 95
2020-03-22 00:00:00 13.5 3 Nordeste 12 Este 0 -- -- 94
2020-03-21 23:00:00 13.5 4 Este 6 Este 0 -- -- 95
2020-03-21 22:00:00 13.6 3 Este 10 Este 0 -- -- 94
2020-03-21 21:00:00 13.8 5 Este 11 Este 0 -- -- 94
2020-03-21 20:00:00 14 7 Este 13 Este 0 -- -- 93
2020-03-21 19:00:00 14 7 Este 17 Este 0 -- -- 91
2020-03-21 18:00:00 14.5 9 Este 19 Nordeste 0 -- -- 87
2020-03-21 17:00:00 15.3 10 Este 19 Este 0 -- -- 82
2020-03-21 16:00:00 15.5 13 Este 25 Este 0 -- -- 79
2020-03-21 15:00:00 16.5 12 Este 26 Este 0 -- -- 73
2020-03-21 14:00:00 16.6 13 Este 25 Nordeste 0 -- -- 72
2020-03-21 13:00:00 16.5 11 Este 20 Sudeste 0 -- -- 64
2020-03-21 12:00:00 15.8 8 Este 22 Nordeste 0 -- -- 65
2020-03-21 11:00:00 11.6 8 Oeste 18 Oeste 0 -- -- 91
2020-03-21 10:00:00 7.9 9 Oeste 18 Sudoeste 0 -- -- 96
2020-03-21 09:00:00 6.9 9 Oeste 16 Oeste 0.2 -- -- 96
2020-03-21 08:00:00 5.4 8 Oeste 15 Oeste 0 -- -- 97
2020-03-21 07:00:00 4.6 9 Oeste 15 Oeste 0 -- -- 96
2020-03-21 06:00:00 4.6 8 Oeste 15 Oeste 0 -- -- 95
2020-03-21 05:00:00 5.1 10 Oeste 18 Oeste 0 -- -- 95
2020-03-21 04:00:00 5.3 8 Oeste 16 Oeste 0 -- -- 94
2020-03-21 03:00:00 6.1 7 Oeste 15 Oeste 0 -- -- 93
2020-03-21 02:00:00 6.1 6 Oeste 14 Oeste 0 -- -- 93
2020-03-21 01:00:00 6 8 Oeste 14 Oeste 0 -- -- 93
2020-03-21 00:00:00 6.3 8 Oeste 14 Oeste 0 -- -- 93
2020-03-20 23:00:00 6.8 7 Oeste 13 Sudoeste 0 -- -- 92
2020-03-20 22:00:00 7.5 7 Oeste 12 Oeste 0 -- -- 90
2020-03-20 21:00:00 8.5 6 Oeste 10 Oeste 0 -- -- 88
2020-03-20 20:00:00 9.8 5 Oeste 8 Oeste 0 -- -- 85
2020-03-20 19:00:00 12.2 3 Sur 9 Este 0 -- -- 80
2020-03-20 18:00:00 14.2 4 Este 12 Este 0 -- -- 71
2020-03-20 17:00:00 14.4 5 Este 12 Este 0 -- -- 76
2020-03-20 16:00:00 14.7 7 Este 19 Este 0 -- -- 78
2020-03-20 15:00:00 15.4 8 Este 18 Este 0 -- -- 77
2020-03-20 14:00:00 15.7 9 Este 19 Sudeste 0 -- -- 73
2020-03-20 13:00:00 16.6 10 Este 17 Este 0 -- -- 66
2020-03-20 12:00:00 16.1 8 Este 15 Este 0 -- -- 69
2020-03-20 11:00:00 15.2 5 Este 14 Este 0 -- -- 74
2020-03-20 10:00:00 12.2 5 Oeste 14 Oeste 0 -- -- 85
2020-03-20 09:00:00 7.7 7 Oeste 13 Sudoeste 0 -- -- 98
2020-03-20 08:00:00 5.4 6 Oeste 14 Oeste 0 -- -- 98
2020-03-20 07:00:00 4.1 8 Oeste 15 Oeste 0 -- -- 97
2020-03-20 06:00:00 4.4 8 Oeste 14 Oeste 0 -- -- 98
2020-03-20 05:00:00 4.6 7 Oeste 15 Oeste 0 -- -- 97
2020-03-20 04:00:00 4.6 8 Oeste 15 Oeste 0 -- -- 97
2020-03-20 03:00:00 5 8 Oeste 13 Oeste 0 -- -- 97
2020-03-20 02:00:00 5.1 8 Oeste 18 Oeste 0 -- -- 96
2020-03-20 01:00:00 5.6 9 Oeste 14 Oeste 0 -- -- 95
2020-03-20 00:00:00 6 8 Oeste 13 Oeste 0 -- -- 93
2020-03-19 23:00:00 7 7 Oeste 13 Oeste 0 -- -- 93
2020-03-19 22:00:00 7.9 6 Oeste 10 Oeste 0 -- -- 93
2020-03-19 21:00:00 8.9 6 Oeste 9 Oeste 0 -- -- 92
2020-03-19 20:00:00 10.1 3 Oeste 4 Oeste 0 -- -- 87
2020-03-19 19:00:00 12.1 2 Sur 8 Sudeste 0 -- -- 84
2020-03-19 18:00:00 13.5 5 Este 13 Sudeste 0 -- -- 81
2020-03-19 17:00:00 14.1 7 Sudeste 18 Sudeste 0 -- -- 78
2020-03-19 16:00:00 15.2 8 Sudeste 16 Sudeste 0 -- -- 74
2020-03-19 15:00:00 15.3 8 Este 17 Este 0 -- -- 73
2020-03-19 14:00:00 14.9 8 Este 19 Este 0 -- -- 76
2020-03-19 13:00:00 14.8 10 Este 19 Este 0 -- -- 79
2020-03-19 12:00:00 14.7 10 Este 18 Este 0 -- -- 78
2020-03-19 11:00:00 14.9 8 Este 15 Este 0 -- -- 77
2020-03-19 10:00:00 13.4 3 Este 9 Oeste 0 -- -- 82
2020-03-19 09:00:00 8.8 6 Oeste 13 Oeste 0 -- -- 98
2020-03-19 08:00:00 5.7 8 Oeste 14 Oeste 0 -- -- 98
2020-03-19 07:00:00 4.5 7 Oeste 13 Oeste 0 -- -- 97
2020-03-19 06:00:00 5 7 Oeste 14 Oeste 0 -- -- 96
2020-03-19 05:00:00 5.3 8 Oeste 14 Oeste 0 -- -- 97
2020-03-19 04:00:00 5.6 7 Oeste 15 Sudoeste 0 -- -- 96
2020-03-19 03:00:00 5.9 8 Oeste 14 Oeste 0 -- -- 94
2020-03-19 02:00:00 6 6 Oeste 12 Oeste 0 -- -- 93
2020-03-19 01:00:00 6.4 7 Oeste 13 Oeste 0 -- -- 93
2020-03-19 00:00:00 6.7 7 Oeste 12 Oeste 0 -- -- 92
2020-03-18 23:00:00 7.4 6 Oeste 12 Oeste 0 -- -- 90
2020-03-18 22:00:00 8.6 7 Oeste 11 Oeste 0 -- -- 89
2020-03-18 21:00:00 9.5 6 Oeste 10 Oeste 0 -- -- 88
2020-03-18 20:00:00 10.6 4 Oeste 8 Oeste 0 -- -- 87
2020-03-18 19:00:00 12.9 3 Oeste 4 Sur 0 -- -- 83
2020-03-18 18:00:00 14.6 0 Calma 10 Sudeste 0 -- -- 80
2020-03-18 17:00:00 15.1 6 Sudeste 14 Sudeste 0 -- -- 78
2020-03-18 16:00:00 17.1 6 Sudeste 15 Sur 0 -- -- 63
2020-03-18 15:00:00 16.3 8 Este 14 Este 0 -- -- 72
2020-03-18 14:00:00 15.7 8 Este 13 Sudeste 0 -- -- 71
2020-03-18 13:00:00 16.5 6 Este 13 Este 0 -- -- 65
2020-03-18 12:00:00 16.1 5 Este 10 Sudeste 0 -- -- 63
2020-03-18 11:00:00 15 5 Este 9 Este 0 -- -- 71
2020-03-18 10:00:00 12.4 3 Oeste 10 Oeste 0 -- -- 87
2020-03-18 09:00:00 9.8 4 Oeste 12 Oeste 0 -- -- 94
2020-03-18 08:00:00 8.4 5 Oeste 13 Oeste 0 -- -- 96
2020-03-18 07:00:00 8 5 Oeste 11 Oeste 0 -- -- 95
2020-03-18 06:00:00 8.4 5 Oeste 11 Oeste 0 -- -- 94
2020-03-18 05:00:00 8.7 6 Oeste 11 Oeste 0 -- -- 94
2020-03-18 04:00:00 9.4 6 Oeste 11 Oeste 0 -- -- 92
2020-03-18 03:00:00 9.6 5 Sudoeste 11 Oeste 0 -- -- 93
2020-03-18 02:00:00 9.9 6 Oeste 13 Oeste 0 -- -- 95
2020-03-18 01:00:00 9.8 4 Oeste 7 Sudoeste 0 -- -- 97
2020-03-18 00:00:00 9.6 0 Calma 6 Sudoeste 0 -- -- 95
2020-03-17 23:00:00 10.2 3 Oeste 6 Noroeste 0 -- -- 94
2020-03-17 22:00:00 10.8 3 Sudoeste 7 Sudoeste 0 -- -- 93
2020-03-17 21:00:00 11.9 2 Sur 8 Sudeste 0 -- -- 90
2020-03-17 20:00:00 12.8 3 Sudeste 6 Sudeste 0 -- -- 88
2020-03-17 19:00:00 14 3 Sudeste 9 Nordeste 0 -- -- 81
2020-03-17 18:00:00 15.2 6 Este 15 Este 0 -- -- 75
2020-03-17 17:00:00 16.2 6 Este 18 Nordeste 0 -- -- 73
2020-03-17 16:00:00 15.9 8 Nordeste 17 Norte 0 -- -- 75
2020-03-17 15:00:00 15.4 7 Nordeste 18 Este 0 -- -- 79
2020-03-17 14:00:00 15.1 9 Nordeste 21 Nordeste 0 -- -- 82
2020-03-17 13:00:00 14.6 8 Nordeste 22 Nordeste 0 -- -- 84
2020-03-17 12:00:00 14.2 9 Nordeste 25 Nordeste 0 -- -- 85
2020-03-17 11:00:00 14.2 9 Norte 20 Nordeste 0 -- -- 86
2020-03-17 10:00:00 13.7 9 Norte 21 Nordeste 0 -- -- 90
2020-03-17 09:00:00 13.3 7 Norte 27 Nordeste 0 -- -- 91
2020-03-17 08:00:00 13.1 8 Norte 22 Norte 0 -- -- 91
2020-03-17 07:00:00 12.9 6 Norte 18 Nordeste 0 -- -- 90
2020-03-17 06:00:00 12.9 6 Norte 20 Norte 0 -- -- 90
2020-03-17 05:00:00 12.9 8 Norte 16 Norte 0 -- -- 90
2020-03-17 04:00:00 12.9 5 Norte 22 Nordeste 0 -- -- 90
2020-03-17 03:00:00 13.2 12 Nordeste 26 Nordeste 0 -- -- 88
2020-03-17 02:00:00 13.2 9 Nordeste 29 Norte 0 -- -- 87
2020-03-17 01:00:00 13.5 12 Nordeste 32 Nordeste 0 -- -- 87
2020-03-17 00:00:00 13.5 16 Nordeste 32 Nordeste 0 -- -- 87
2020-03-16 23:00:00 13.4 15 Nordeste 38 Nordeste 0 -- -- 89
2020-03-16 22:00:00 13.1 13 Nordeste 29 Nordeste 0 -- -- 91
2020-03-16 21:00:00 12.8 12 Nordeste 27 Nordeste 0.2 -- -- 93
2020-03-16 20:00:00 12.8 12 Nordeste 28 Nordeste 1 -- -- 96
2020-03-16 19:00:00 12.8 8 Nordeste 27 Nordeste 0.4 -- -- 96
2020-03-16 18:00:00 13 13 Este 24 Este 1 -- -- 96
2020-03-16 17:00:00 13.1 13 Nordeste 29 Este 0 -- -- 96
2020-03-16 16:00:00 13 13 Este 32 Nordeste 2 -- -- 97
2020-03-16 15:00:00 12.9 17 Este 32 Nordeste 1 -- -- 97
2020-03-16 14:00:00 12.7 15 Este 33 Este 2.2 -- -- 96
2020-03-16 13:00:00 13.4 15 Este 37 Este 2 -- -- 96
2020-03-16 12:00:00 13.6 15 Este 22 Este 1.4 -- -- 95
2020-03-16 11:00:00 14.1 11 Este 18 Este 0 -- -- 93
2020-03-16 10:00:00 13.8 9 Este 19 Nordeste 0 -- -- 91
2020-03-16 09:00:00 13.6 7 Este 17 Este 0 -- -- 90
2020-03-16 08:00:00 13.1 10 Este 20 Este 0 -- -- 92
2020-03-16 07:00:00 10.6 4 Nordeste 12 Este 0 -- -- 98
2020-03-16 06:00:00 9.5 2 Oeste 7 Oeste 0 -- -- 95
2020-03-16 05:00:00 9.7 2 Oeste 4 Oeste 0 -- -- 92
2020-03-16 04:00:00 10.6 3 Sur 4 Sur 0 -- -- 90
2020-03-16 03:00:00 12.8 0 Calma 9 Sudeste 0 -- -- 86
2020-03-16 02:00:00 13.3 3 Este 16 Sudeste 0 -- -- 87
2020-03-16 01:00:00 13.3 4 Sudeste 9 Este 0 -- -- 88
2020-03-16 00:00:00 13.4 5 Este 12 Sur 0 -- -- 89
2020-03-15 23:00:00 13.3 4 Sudeste 11 Sudeste 0 -- -- 88
2020-03-15 22:00:00 13.3 3 Este 13 Sudeste 0 -- -- 86
2020-03-15 21:00:00 13.6 4 Sudeste 10 Sur 0 -- -- 89
2020-03-15 20:00:00 13.9 6 Sur 18 Sudeste 0 -- -- 85
2020-03-15 19:00:00 14.2 5 Sur 21 Sur 0 -- -- 85
2020-03-15 18:00:00 14.5 11 Sur 23 Sudoeste 0 -- -- 84
2020-03-15 17:00:00 15 11 Sur 28 Sur 0 -- -- 83
2020-03-15 16:00:00 16 9 Sudoeste 34 Sur 0 -- -- 79
2020-03-15 15:00:00 16.5 13 Sur 37 Sudeste 0 -- -- 76
2020-03-15 14:00:00 15.9 19 Sur 32 Sur 0 -- -- 77
2020-03-15 13:00:00 16.1 15 Sur 33 Sur 0 -- -- 77
2020-03-15 12:00:00 15.9 11 Sudeste 24 Sur 0 -- -- 81
2020-03-15 11:00:00 16.1 11 Sur 27 Sudoeste 0 -- -- 77
2020-03-15 10:00:00 14.7 12 Sudeste 22 Sudeste 0 -- -- 83
2020-03-15 09:00:00 12.4 3 Noroeste 9 Oeste 0 -- -- 91
2020-03-15 08:00:00 10 4 Oeste 9 Oeste 0 -- -- 93
2020-03-15 07:00:00 10.5 2 Sudoeste 8 Oeste 0 -- -- 89
2020-03-15 06:00:00 11 5 Oeste 8 Oeste 0 -- -- 87
2020-03-15 05:00:00 11 4 Oeste 10 Oeste 0 -- -- 86
2020-03-15 04:00:00 11.1 5 Oeste 10 Oeste 0 -- -- 88
2020-03-15 03:00:00 11.7 5 Oeste 9 Oeste 0 -- -- 90
2020-03-15 02:00:00 12.2 3 Sudoeste 10 Sudoeste 0 -- -- 91
2020-03-15 01:00:00 12.1 3 Este 9 Oeste 0 -- -- 92
2020-03-15 00:00:00 12 2 Sudoeste 5 Oeste 0 -- -- 91
2020-03-14 23:00:00 11.8 2 Sudoeste 4 Oeste 0 -- -- 90
2020-03-14 22:00:00 12.5 3 Oeste 4 Oeste 0 -- -- 88
2020-03-14 21:00:00 13 2 Sur 5 Noroeste 0 -- -- 85
2020-03-14 20:00:00 13.5 3 Oeste 9 Sudoeste 0 -- -- 83
2020-03-14 19:00:00 13.6 3 Sudoeste 14 Sur 0 -- -- 81
2020-03-14 18:00:00 14 4 Sur 14 Sur 0 -- -- 78
2020-03-14 17:00:00 14.1 8 Sur 16 Sur 0 -- -- 76
2020-03-14 16:00:00 14.3 10 Sur 19 Sur 0 -- -- 74
2020-03-14 15:00:00 14.6 10 Sur 20 Sur 0 -- -- 74
2020-03-14 14:00:00 14.7 13 Sur 23 Sur 0 -- -- 75
2020-03-14 13:00:00 15 10 Sur 17 Sur 0 -- -- 78
2020-03-14 12:00:00 15.2 6 Sur 10 Sudeste 0 -- -- 72
2020-03-14 11:00:00 14.8 4 Este 8 Sudeste 0 -- -- 73
2020-03-14 10:00:00 14.5 2 Oeste 11 Noroeste 0 -- -- 76
2020-03-14 09:00:00 13.6 5 Norte 9 Nordeste 0 -- -- 76
2020-03-14 08:00:00 13.1 2 Sudeste 5 Sudeste 0 -- -- 81
2020-03-14 07:00:00 13.2 4 Este 14 Este 0 -- -- 78
2020-03-14 06:00:00 12.9 4 Este 9 Este 0 -- -- 86
2020-03-14 05:00:00 12.1 0 Calma 5 Sur 0 -- -- 88
2020-03-14 04:00:00 12.1 3 Sudoeste 7 Sudoeste 0 -- -- 88
2020-03-14 03:00:00 12.2 3 Oeste 6 Noroeste 0 -- -- 86
2020-03-14 02:00:00 12.4 3 Sudoeste 8 Sudoeste 0 -- -- 85
2020-03-14 01:00:00 12.6 3 Oeste 6 Norte 0 -- -- 84
2020-03-14 00:00:00 12.5 3 Sudoeste 8 Oeste 0 -- -- 84
2020-03-13 23:00:00 12.5 4 Noroeste 6 Oeste 0 -- -- 85
2020-03-13 22:00:00 12.5 3 Oeste 6 Oeste 0 -- -- 78
2020-03-13 21:00:00 13.5 4 Sudeste 8 Sudoeste 0 -- -- 79
2020-03-13 20:00:00 14.2 3 Oeste 6 Oeste 0 -- -- 80
2020-03-13 19:00:00 15.1 0 Calma 8 Noroeste 0 -- -- 76
2020-03-13 18:00:00 15.6 3 Norte 14 Sur 0 -- -- 70
2020-03-13 17:00:00 16.3 5 Sur 14 Sudeste 0 -- -- 69
2020-03-13 16:00:00 16.8 7 Sur 15 Sudeste 0 -- -- 65
2020-03-13 15:00:00 17.4 9 Sudeste 20 Sudoeste 0 -- -- 61
2020-03-13 14:00:00 17.5 13 Sur 24 Sudeste 0 -- -- 68
2020-03-13 13:00:00 18.6 9 Norte 24 Norte 0 -- -- 56
2020-03-13 12:00:00 18.5 8 Norte 19 Noroeste 0 -- -- 56
2020-03-13 11:00:00 16.1 9 Norte 23 Norte 0 -- -- 63
2020-03-13 10:00:00 14.6 4 Oeste 9 Oeste 0 -- -- 79
2020-03-13 09:00:00 11.3 4 Oeste 13 Oeste 0 -- -- 95
2020-03-13 08:00:00 9 6 Oeste 13 Oeste 0 -- -- 97
2020-03-13 07:00:00 8.3 5 Oeste 15 Oeste 0 -- -- 97
2020-03-13 06:00:00 8.7 0 Calma 9 Noroeste 0 -- -- 96
2020-03-13 05:00:00 9 4 Oeste 12 Oeste 0 -- -- 97
2020-03-13 04:00:00 8.9 4 Oeste 9 Oeste 0 -- -- 96
2020-03-13 03:00:00 8.7 3 Oeste 6 Noroeste 0 -- -- 96
2020-03-13 02:00:00 9 3 Norte 11 Sudoeste 0 -- -- 96
2020-03-13 01:00:00 9.3 7 Oeste 12 Oeste 0 -- -- 96
2020-03-13 00:00:00 9.5 4 Oeste 8 Oeste 0 -- -- 94
2020-03-12 23:00:00 9.9 5 Oeste 8 Oeste 0 -- -- 94
2020-03-12 22:00:00 10.6 3 Oeste 9 Oeste 0 -- -- 94
2020-03-12 21:00:00 11.4 6 Oeste 10 Oeste 0 -- -- 94
2020-03-12 20:00:00 12.2 4 Oeste 5 Oeste 0 -- -- 93
2020-03-12 19:00:00 12.7 2 Sudeste 10 Sur 0 -- -- 94
2020-03-12 18:00:00 13.1 6 Sur 14 Sur 0 -- -- 92
2020-03-12 17:00:00 14.1 8 Sudeste 15 Sudeste 0 -- -- 88
2020-03-12 16:00:00 15 10 Sudeste 17 Sudeste 0 -- -- 86
2020-03-12 15:00:00 18.2 7 Este 12 Sudeste 0 -- -- 72
2020-03-12 14:00:00 18.1 6 Este 14 Sudeste 0 -- -- 66
2020-03-12 13:00:00 18.1 11 Sur 23 Sur 0 -- -- 73
2020-03-12 12:00:00 18.3 9 Sudeste 15 Sudeste 0 -- -- 67
2020-03-12 11:00:00 18.3 6 Este 10 Este 0 -- -- 67
2020-03-12 10:00:00 14.8 3 Oeste 11 Sudoeste 0 -- -- 79
2020-03-12 09:00:00 10.7 5 Oeste 14 Oeste 0 -- -- 95
2020-03-12 08:00:00 8 8 Oeste 14 Oeste 0 -- -- 97
2020-03-12 07:00:00 7.4 8 Oeste 13 Oeste 0 -- -- 96
2020-03-12 06:00:00 8.1 7 Oeste 18 Sudoeste 0 -- -- 97
2020-03-12 05:00:00 7.8 11 Oeste 18 Oeste 0 -- -- 96
2020-03-12 04:00:00 8.1 8 Oeste 17 Oeste 0 -- -- 96
2020-03-12 03:00:00 8.4 9 Oeste 15 Oeste 0 -- -- 95
2020-03-12 02:00:00 8.9 8 Sudoeste 17 Sudoeste 0 -- -- 95
2020-03-12 01:00:00 8.5 6 Oeste 12 Oeste 0 -- -- 94
2020-03-12 00:00:00 8.9 5 Oeste 13 Oeste 0 -- -- 93
2020-03-11 23:00:00 9.5 6 Oeste 12 Oeste 0 -- -- 92
2020-03-11 22:00:00 10.4 5 Oeste 9 Oeste 0 -- -- 92
2020-03-11 21:00:00 11 4 Sudoeste 8 Sudoeste 0 -- -- 90
2020-03-11 20:00:00 12.6 3 Sudoeste 5 Oeste 0 -- -- 86
2020-03-11 19:00:00 14.3 4 Sur 15 Sur 0 -- -- 84
2020-03-11 18:00:00 14.9 6 Este 21 Sudeste 0 -- -- 82
2020-03-11 17:00:00 15.4 5 Este 28 Sur 0 -- -- 82
2020-03-11 16:00:00 16.4 14 Sur 32 Sur 0 -- -- 78
2020-03-11 15:00:00 18.1 13 Sur 27 Sur 0 -- -- 67
2020-03-11 14:00:00 18 13 Sur 28 Sur 0 -- -- 62
2020-03-11 13:00:00 18 16 Sur 29 Sudoeste 0 -- -- 61
2020-03-11 12:00:00 17.8 13 Sur 21 Sur 0 -- -- 64
2020-03-11 11:00:00 17.4 9 Sur 17 Sudoeste 0 -- -- 64
2020-03-11 10:00:00 14 4 Oeste 11 Oeste 0 -- -- 77
2020-03-11 09:00:00 9.2 6 Oeste 17 Oeste 0 -- -- 94
2020-03-11 08:00:00 6.5 9 Oeste 15 Oeste 0 -- -- 95
2020-03-11 07:00:00 6.2 7 Oeste 13 Oeste 0 -- -- 95
2020-03-11 06:00:00 6.3 8 Oeste 17 Oeste 0 -- -- 94
2020-03-11 05:00:00 6.7 8 Oeste 13 Oeste 0 -- -- 94
2020-03-11 04:00:00 6.8 7 Oeste 12 Oeste 0 -- -- 93
2020-03-11 03:00:00 7.2 5 Oeste 12 Oeste 0 -- -- 92
2020-03-11 02:00:00 7.5 5 Oeste 14 Oeste 0 -- -- 91
2020-03-11 01:00:00 8.3 7 Oeste 16 Oeste 0 -- -- 89
2020-03-11 00:00:00 9 8 Oeste 14 Sudoeste 0 -- -- 88